Terminal Aerodrome Forecast
Issued by NWS Cleveland, OH

Home | Current Version | Previous Version | Text Only | Print | Product List | Glossary On
Versions: 1 2 3 4 5 6 7 8 9 10 11 12 13 14 15 16 17 18 19 20 21 22 23 24 25 26 27 28 29 30 31 32 33
000
FTUS41 KCLE 211700 CCA
TAFCLE
TAF COR
KCLE 211754Z 2118/2224 24008KT 3SM -SHSN SCT019 OVC035
     FM211830 24008KT P6SM -SHSN SCT020 BKN035
     FM212000 22008KT P6SM BKN035
     FM220100 18006KT P6SM SCT200
     FM221100 19008KT P6SM BKN040 OVC080 PROB30 2212/2215 6SM -FZRA
      OVC025
     FM221500 20012KT 5SM -RA BR BKN025 OVC050=

USA.gov is the U.S. government's official web portal to all federal, state and local government web resources and services.